Terminal Aerodrome Forecast
Issued by NWS

Home | Current Version | Previous Version | Text Only | Print | Product List | Glossary On
Versions: 1 2 3 4 5 6 7 8 9 10 11 12 13
184
FTUS41 KBTV 282320
TAFSLK
TAF
KSLK 282320Z 2900/2924 00000KT P6SM SCT150
     FM290600 00000KT 1SM BR BKN003
     FM291200 20004KT P6SM SCT150
     FM291700 22006KT P6SM VCSH BKN250
     FM292100 22006KT P6SM -SHRA BKN045=

USA.gov is the U.S. government's official web portal to all federal, state and local government web resources and services.